sensor_id;sensor_type;location;lat;lon;timestamp;P1;durP1;ratioP1;P2;durP2;ratioP2
67108;SDS011;54027;50.786;7.058;2023-10-31T00:00:18;0.47;;;0.43;;
67108;SDS011;54027;50.786;7.058;2023-10-31T00:02:43;0.60;;;0.55;;
67108;SDS011;54027;50.786;7.058;2023-10-31T00:05:09;0.60;;;0.50;;
67108;SDS011;54027;50.786;7.058;2023-10-31T00:07:34;0.55;;;0.55;;
67108;SDS011;54027;50.786;7.058;2023-10-31T00:09:59;0.68;;;0.60;;
67108;SDS011;54027;50.786;7.058;2023-10-31T00:12:25;0.93;;;0.60;;
67108;SDS011;54027;50.786;7.058;2023-10-31T00:14:51;0.40;;;0.40;;
67108;SDS011;54027;50.786;7.058;2023-10-31T00:17:16;1.92;;;0.55;;
67108;SDS011;54027;50.786;7.058;2023-10-31T00:19:42;0.77;;;0.63;;
67108;SDS011;54027;50.786;7.058;2023-10-31T00:22:07;1.45;;;0.63;;
67108;SDS011;54027;50.786;7.058;2023-10-31T00:24:32;1.25;;;0.80;;
67108;SDS011;54027;50.786;7.058;2023-10-31T00:26:58;0.90;;;0.70;;
67108;SDS011;54027;50.786;7.058;2023-10-31T00:29:23;1.30;;;0.95;;
67108;SDS011;54027;50.786;7.058;2023-10-31T00:31:49;1.30;;;1.00;;
67108;SDS011;54027;50.786;7.058;2023-10-31T00:34:14;0.90;;;0.80;;
67108;SDS011;54027;50.786;7.058;2023-10-31T00:36:40;2.00;;;1.00;;
67108;SDS011;54027;50.786;7.058;2023-10-31T00:39:05;1.58;;;1.00;;
67108;SDS011;54027;50.786;7.058;2023-10-31T00:41:30;0.90;;;0.75;;
67108;SDS011;54027;50.786;7.058;2023-10-31T00:43:56;1.50;;;0.98;;
67108;SDS011;54027;50.786;7.058;2023-10-31T00:46:21;1.77;;;0.90;;
67108;SDS011;54027;50.786;7.058;2023-10-31T00:48:46;0.93;;;0.70;;
67108;SDS011;54027;50.786;7.058;2023-10-31T00:51:12;1.45;;;0.70;;
67108;SDS011;54027;50.786;7.058;2023-10-31T00:53:37;0.68;;;0.65;;
67108;SDS011;54027;50.786;7.058;2023-10-31T00:56:03;0.80;;;0.55;;
67108;SDS011;54027;50.786;7.058;2023-10-31T00:58:29;0.90;;;0.80;;
67108;SDS011;54027;50.786;7.058;2023-10-31T01:00:54;1.38;;;0.80;;
67108;SDS011;54027;50.786;7.058;2023-10-31T01:03:19;1.23;;;0.80;;
67108;SDS011;54027;50.786;7.058;2023-10-31T01:05:45;2.25;;;0.82;;
67108;SDS011;54027;50.786;7.058;2023-10-31T01:08:10;1.48;;;0.70;;
67108;SDS011;54027;50.786;7.058;2023-10-31T01:10:36;1.25;;;0.70;;
67108;SDS011;54027;50.786;7.058;2023-10-31T01:13:01;2.88;;;0.70;;
67108;SDS011;54027;50.786;7.058;2023-10-31T01:15:27;1.75;;;0.70;;
67108;SDS011;54027;50.786;7.058;2023-10-31T01:17:52;1.27;;;0.70;;
67108;SDS011;54027;50.786;7.058;2023-10-31T01:20:17;0.60;;;0.60;;
67108;SDS011;54027;50.786;7.058;2023-10-31T01:22:43;2.90;;;0.80;;
67108;SDS011;54027;50.786;7.058;2023-10-31T01:25:08;1.25;;;0.60;;
67108;SDS011;54027;50.786;7.058;2023-10-31T01:27:34;0.88;;;0.50;;
67108;SDS011;54027;50.786;7.058;2023-10-31T01:30:00;2.38;;;0.60;;
67108;SDS011;54027;50.786;7.058;2023-10-31T01:32:25;2.28;;;0.90;;
67108;SDS011;54027;50.786;7.058;2023-10-31T01:34:51;1.90;;;0.65;;
67108;SDS011;54027;50.786;7.058;2023-10-31T01:37:16;2.65;;;0.90;;
67108;SDS011;54027;50.786;7.058;2023-10-31T01:39:44;1.17;;;0.65;;
67108;SDS011;54027;50.786;7.058;2023-10-31T01:42:09;1.70;;;0.85;;
67108;SDS011;54027;50.786;7.058;2023-10-31T01:44:35;2.45;;;1.13;;
67108;SDS011;54027;50.786;7.058;2023-10-31T01:47:00;1.83;;;0.65;;
67108;SDS011;54027;50.786;7.058;2023-10-31T01:49:25;1.88;;;0.85;;
67108;SDS011;54027;50.786;7.058;2023-10-31T01:51:51;2.67;;;0.95;;
67108;SDS011;54027;50.786;7.058;2023-10-31T01:54:17;1.05;;;0.50;;
67108;SDS011;54027;50.786;7.058;2023-10-31T01:56:42;0.60;;;0.60;;
67108;SDS011;54027;50.786;7.058;2023-10-31T01:59:09;4.13;;;0.82;;
67108;SDS011;54027;50.786;7.058;2023-10-31T02:01:37;1.95;;;0.90;;
67108;SDS011;54027;50.786;7.058;2023-10-31T02:04:05;1.25;;;0.80;;
67108;SDS011;54027;50.786;7.058;2023-10-31T02:06:30;2.30;;;0.75;;
67108;SDS011;54027;50.786;7.058;2023-10-31T02:08:56;1.88;;;0.70;;
67108;SDS011;54027;50.786;7.058;2023-10-31T02:11:22;1.38;;;0.85;;
67108;SDS011;54027;50.786;7.058;2023-10-31T02:13:47;1.83;;;0.88;;
67108;SDS011;54027;50.786;7.058;2023-10-31T02:16:13;1.85;;;0.90;;
67108;SDS011;54027;50.786;7.058;2023-10-31T02:18:38;3.47;;;1.00;;
67108;SDS011;54027;50.786;7.058;2023-10-31T02:21:04;2.05;;;0.90;;
67108;SDS011;54027;50.786;7.058;2023-10-31T02:23:29;1.42;;;0.75;;
67108;SDS011;54027;50.786;7.058;2023-10-31T02:25:55;2.60;;;0.80;;
67108;SDS011;54027;50.786;7.058;2023-10-31T02:28:20;3.67;;;1.38;;
67108;SDS011;54027;50.786;7.058;2023-10-31T02:30:46;3.63;;;1.08;;
67108;SDS011;54027;50.786;7.058;2023-10-31T02:33:11;4.45;;;1.05;;
67108;SDS011;54027;50.786;7.058;2023-10-31T02:35:37;2.95;;;1.00;;
67108;SDS011;54027;50.786;7.058;2023-10-31T02:38:02;2.45;;;0.80;;
67108;SDS011;54027;50.786;7.058;2023-10-31T02:40:28;6.05;;;1.00;;
67108;SDS011;54027;50.786;7.058;2023-10-31T02:42:53;3.83;;;1.00;;
67108;SDS011;54027;50.786;7.058;2023-10-31T02:45:19;3.15;;;0.95;;
67108;SDS011;54027;50.786;7.058;2023-10-31T02:47:44;4.50;;;0.90;;
67108;SDS011;54027;50.786;7.058;2023-10-31T02:50:10;2.10;;;0.98;;
67108;SDS011;54027;50.786;7.058;2023-10-31T02:52:35;3.28;;;1.17;;
67108;SDS011;54027;50.786;7.058;2023-10-31T02:55:01;2.55;;;1.10;;
67108;SDS011;54027;50.786;7.058;2023-10-31T02:57:27;2.63;;;1.25;;
67108;SDS011;54027;50.786;7.058;2023-10-31T02:59:52;5.50;;;1.00;;
67108;SDS011;54027;50.786;7.058;2023-10-31T03:02:18;3.38;;;1.55;;
67108;SDS011;54027;50.786;7.058;2023-10-31T03:04:43;1.38;;;0.93;;
67108;SDS011;54027;50.786;7.058;2023-10-31T03:07:08;1.75;;;0.80;;
67108;SDS011;54027;50.786;7.058;2023-10-31T03:09:34;2.35;;;0.90;;
67108;SDS011;54027;50.786;7.058;2023-10-31T03:11:59;3.42;;;1.05;;
67108;SDS011;54027;50.786;7.058;2023-10-31T03:14:24;2.40;;;1.08;;
67108;SDS011;54027;50.786;7.058;2023-10-31T03:16:50;3.15;;;1.00;;
67108;SDS011;54027;50.786;7.058;2023-10-31T03:19:16;0.93;;;0.70;;
67108;SDS011;54027;50.786;7.058;2023-10-31T03:21:41;1.65;;;1.02;;
67108;SDS011;54027;50.786;7.058;2023-10-31T03:24:07;2.88;;;0.80;;
67108;SDS011;54027;50.786;7.058;2023-10-31T03:26:32;2.53;;;1.00;;
67108;SDS011;54027;50.786;7.058;2023-10-31T03:28:57;2.33;;;0.80;;
67108;SDS011;54027;50.786;7.058;2023-10-31T03:31:23;3.35;;;1.20;;
67108;SDS011;54027;50.786;7.058;2023-10-31T03:33:49;3.10;;;0.90;;
67108;SDS011;54027;50.786;7.058;2023-10-31T03:36:15;2.13;;;1.17;;
67108;SDS011;54027;50.786;7.058;2023-10-31T03:38:40;4.20;;;1.10;;
67108;SDS011;54027;50.786;7.058;2023-10-31T03:41:06;4.15;;;1.25;;
67108;SDS011;54027;50.786;7.058;2023-10-31T03:43:31;4.80;;;1.65;;
67108;SDS011;54027;50.786;7.058;2023-10-31T03:45:57;4.82;;;1.17;;
67108;SDS011;54027;50.786;7.058;2023-10-31T03:48:22;4.47;;;1.42;;
67108;SDS011;54027;50.786;7.058;2023-10-31T03:50:47;2.17;;;1.17;;
67108;SDS011;54027;50.786;7.058;2023-10-31T03:53:14;5.45;;;1.25;;
67108;SDS011;54027;50.786;7.058;2023-10-31T03:55:40;8.95;;;1.90;;
67108;SDS011;54027;50.786;7.058;2023-10-31T03:58:05;4.03;;;1.20;;
67108;SDS011;54027;50.786;7.058;2023-10-31T04:00:31;5.57;;;1.95;;
67108;SDS011;54027;50.786;7.058;2023-10-31T04:02:56;5.22;;;1.85;;
67108;SDS011;54027;50.786;7.058;2023-10-31T04:05:21;4.05;;;1.80;;
67108;SDS011;54027;50.786;7.058;2023-10-31T04:07:48;4.18;;;2.10;;
67108;SDS011;54027;50.786;7.058;2023-10-31T04:10:14;3.33;;;2.22;;
67108;SDS011;54027;50.786;7.058;2023-10-31T04:12:40;4.88;;;2.75;;
67108;SDS011;54027;50.786;7.058;2023-10-31T04:15:07;3.95;;;2.00;;
67108;SDS011;54027;50.786;7.058;2023-10-31T04:17:35;3.55;;;1.80;;
67108;SDS011;54027;50.786;7.058;2023-10-31T04:20:01;5.20;;;1.98;;
67108;SDS011;54027;50.786;7.058;2023-10-31T04:22:27;4.60;;;2.05;;
67108;SDS011;54027;50.786;7.058;2023-10-31T04:24:52;2.75;;;1.65;;
67108;SDS011;54027;50.786;7.058;2023-10-31T04:27:18;2.67;;;1.55;;
67108;SDS011;54027;50.786;7.058;2023-10-31T04:29:44;5.75;;;1.88;;
67108;SDS011;54027;50.786;7.058;2023-10-31T04:32:10;3.40;;;1.65;;
67108;SDS011;54027;50.786;7.058;2023-10-31T04:34:35;4.20;;;1.77;;
67108;SDS011;54027;50.786;7.058;2023-10-31T04:37:00;2.83;;;1.65;;
67108;SDS011;54027;50.786;7.058;2023-10-31T04:39:26;4.50;;;1.70;;
67108;SDS011;54027;50.786;7.058;2023-10-31T04:41:52;6.72;;;1.40;;
67108;SDS011;54027;50.786;7.058;2023-10-31T04:44:17;1.70;;;1.10;;
67108;SDS011;54027;50.786;7.058;2023-10-31T04:46:42;3.00;;;1.35;;
67108;SDS011;54027;50.786;7.058;2023-10-31T04:49:08;2.20;;;1.30;;
67108;SDS011;54027;50.786;7.058;2023-10-31T04:51:34;3.70;;;1.20;;
67108;SDS011;54027;50.786;7.058;2023-10-31T04:54:01;1.60;;;0.90;;
67108;SDS011;54027;50.786;7.058;2023-10-31T04:56:26;2.03;;;1.08;;
67108;SDS011;54027;50.786;7.058;2023-10-31T04:58:52;2.03;;;1.00;;
67108;SDS011;54027;50.786;7.058;2023-10-31T05:01:18;3.53;;;1.05;;
67108;SDS011;54027;50.786;7.058;2023-10-31T05:03:44;1.30;;;0.90;;
67108;SDS011;54027;50.786;7.058;2023-10-31T05:06:10;0.80;;;0.75;;
67108;SDS011;54027;50.786;7.058;2023-10-31T05:08:35;1.65;;;0.70;;
67108;SDS011;54027;50.786;7.058;2023-10-31T05:11:00;1.50;;;0.70;;
67108;SDS011;54027;50.786;7.058;2023-10-31T05:13:26;1.13;;;0.60;;
67108;SDS011;54027;50.786;7.058;2023-10-31T05:15:51;0.93;;;0.65;;
67108;SDS011;54027;50.786;7.058;2023-10-31T05:18:17;1.02;;;0.50;;
67108;SDS011;54027;50.786;7.058;2023-10-31T05:20:43;1.67;;;0.60;;
67108;SDS011;54027;50.786;7.058;2023-10-31T05:23:08;1.98;;;0.63;;
67108;SDS011;54027;50.786;7.058;2023-10-31T05:25:34;2.92;;;0.60;;
67108;SDS011;54027;50.786;7.058;2023-10-31T05:27:59;0.80;;;0.70;;
67108;SDS011;54027;50.786;7.058;2023-10-31T05:30:25;0.60;;;0.55;;
67108;SDS011;54027;50.786;7.058;2023-10-31T05:32:51;0.63;;;0.40;;
67108;SDS011;54027;50.786;7.058;2023-10-31T05:35:17;1.05;;;0.80;;
67108;SDS011;54027;50.786;7.058;2023-10-31T05:37:42;1.70;;;1.00;;
67108;SDS011;54027;50.786;7.058;2023-10-31T05:40:08;1.50;;;0.65;;
67108;SDS011;54027;50.786;7.058;2023-10-31T05:42:34;0.68;;;0.68;;
67108;SDS011;54027;50.786;7.058;2023-10-31T05:44:59;2.40;;;0.90;;
67108;SDS011;54027;50.786;7.058;2023-10-31T05:47:25;1.42;;;1.00;;
67108;SDS011;54027;50.786;7.058;2023-10-31T05:49:50;1.80;;;0.70;;
67108;SDS011;54027;50.786;7.058;2023-10-31T05:52:15;0.85;;;0.80;;
67108;SDS011;54027;50.786;7.058;2023-10-31T05:54:41;2.55;;;0.80;;
67108;SDS011;54027;50.786;7.058;2023-10-31T05:57:06;0.93;;;0.70;;
67108;SDS011;54027;50.786;7.058;2023-10-31T05:59:31;2.28;;;1.00;;
67108;SDS011;54027;50.786;7.058;2023-10-31T06:01:57;1.98;;;0.95;;
67108;SDS011;54027;50.786;7.058;2023-10-31T06:04:23;1.77;;;0.95;;
67108;SDS011;54027;50.786;7.058;2023-10-31T06:06:50;1.20;;;0.73;;
67108;SDS011;54027;50.786;7.058;2023-10-31T06:09:15;0.90;;;0.70;;
67108;SDS011;54027;50.786;7.058;2023-10-31T06:11:41;2.17;;;1.00;;
67108;SDS011;54027;50.786;7.058;2023-10-31T06:14:10;0.93;;;0.70;;
67108;SDS011;54027;50.786;7.058;2023-10-31T06:16:40;1.33;;;1.00;;
67108;SDS011;54027;50.786;7.058;2023-10-31T06:19:06;1.85;;;1.05;;
67108;SDS011;54027;50.786;7.058;2023-10-31T06:21:32;1.73;;;1.10;;
67108;SDS011;54027;50.786;7.058;2023-10-31T06:23:57;1.42;;;0.90;;
67108;SDS011;54027;50.786;7.058;2023-10-31T06:26:22;1.73;;;0.57;;
67108;SDS011;54027;50.786;7.058;2023-10-31T06:28:48;0.93;;;0.80;;
67108;SDS011;54027;50.786;7.058;2023-10-31T06:31:13;0.85;;;0.70;;
67108;SDS011;54027;50.786;7.058;2023-10-31T06:33:38;1.80;;;0.90;;
67108;SDS011;54027;50.786;7.058;2023-10-31T06:36:04;1.58;;;0.80;;
67108;SDS011;54027;50.786;7.058;2023-10-31T06:38:31;3.92;;;0.90;;
67108;SDS011;54027;50.786;7.058;2023-10-31T06:40:57;1.85;;;0.95;;
67108;SDS011;54027;50.786;7.058;2023-10-31T06:43:22;1.48;;;1.00;;
67108;SDS011;54027;50.786;7.058;2023-10-31T06:45:47;1.23;;;0.82;;
67108;SDS011;54027;50.786;7.058;2023-10-31T06:48:12;1.55;;;1.08;;
67108;SDS011;54027;50.786;7.058;2023-10-31T06:50:38;2.17;;;0.90;;
67108;SDS011;54027;50.786;7.058;2023-10-31T06:53:03;1.52;;;1.08;;
67108;SDS011;54027;50.786;7.058;2023-10-31T06:55:29;2.08;;;1.23;;
67108;SDS011;54027;50.786;7.058;2023-10-31T06:57:54;2.05;;;1.13;;
67108;SDS011;54027;50.786;7.058;2023-10-31T07:00:20;2.55;;;1.23;;
67108;SDS011;54027;50.786;7.058;2023-10-31T07:02:45;1.83;;;1.10;;
67108;SDS011;54027;50.786;7.058;2023-10-31T07:05:12;4.07;;;1.50;;
67108;SDS011;54027;50.786;7.058;2023-10-31T07:07:39;3.20;;;1.30;;
67108;SDS011;54027;50.786;7.058;2023-10-31T07:10:04;3.28;;;1.17;;
67108;SDS011;54027;50.786;7.058;2023-10-31T07:12:30;2.13;;;1.30;;
67108;SDS011;54027;50.786;7.058;2023-10-31T07:14:56;5.13;;;1.30;;
67108;SDS011;54027;50.786;7.058;2023-10-31T07:17:23;3.03;;;1.30;;
67108;SDS011;54027;50.786;7.058;2023-10-31T07:19:49;2.20;;;1.10;;
67108;SDS011;54027;50.786;7.058;2023-10-31T07:22:14;2.08;;;1.20;;
67108;SDS011;54027;50.786;7.058;2023-10-31T07:24:40;3.42;;;1.50;;
67108;SDS011;54027;50.786;7.058;2023-10-31T07:27:05;1.83;;;1.27;;
67108;SDS011;54027;50.786;7.058;2023-10-31T07:29:31;2.70;;;1.42;;
67108;SDS011;54027;50.786;7.058;2023-10-31T07:31:56;2.92;;;1.45;;
67108;SDS011;54027;50.786;7.058;2023-10-31T07:34:22;2.25;;;1.25;;
67108;SDS011;54027;50.786;7.058;2023-10-31T07:36:47;2.25;;;1.38;;
67108;SDS011;54027;50.786;7.058;2023-10-31T07:39:12;3.50;;;1.48;;
67108;SDS011;54027;50.786;7.058;2023-10-31T07:41:39;2.72;;;1.33;;
67108;SDS011;54027;50.786;7.058;2023-10-31T07:44:04;3.38;;;1.40;;
67108;SDS011;54027;50.786;7.058;2023-10-31T07:46:30;3.00;;;1.30;;
67108;SDS011;54027;50.786;7.058;2023-10-31T07:48:56;2.58;;;1.50;;
67108;SDS011;54027;50.786;7.058;2023-10-31T07:51:22;3.20;;;1.52;;
67108;SDS011;54027;50.786;7.058;2023-10-31T07:53:47;1.88;;;1.20;;
67108;SDS011;54027;50.786;7.058;2023-10-31T07:56:18;2.65;;;1.33;;
67108;SDS011;54027;50.786;7.058;2023-10-31T07:58:48;1.70;;;1.38;;
67108;SDS011;54027;50.786;7.058;2023-10-31T08:01:14;2.95;;;1.40;;
67108;SDS011;54027;50.786;7.058;2023-10-31T08:03:40;2.42;;;1.42;;
67108;SDS011;54027;50.786;7.058;2023-10-31T08:06:05;2.78;;;1.52;;
67108;SDS011;54027;50.786;7.058;2023-10-31T08:08:32;2.53;;;1.55;;
67108;SDS011;54027;50.786;7.058;2023-10-31T08:10:57;3.10;;;1.30;;
67108;SDS011;54027;50.786;7.058;2023-10-31T08:13:24;4.05;;;1.40;;
67108;SDS011;54027;50.786;7.058;2023-10-31T08:15:49;4.25;;;1.38;;
67108;SDS011;54027;50.786;7.058;2023-10-31T08:18:15;2.33;;;1.20;;
67108;SDS011;54027;50.786;7.058;2023-10-31T08:20:40;5.15;;;1.80;;
67108;SDS011;54027;50.786;7.058;2023-10-31T08:23:05;3.75;;;1.27;;
67108;SDS011;54027;50.786;7.058;2023-10-31T08:25:31;2.20;;;1.45;;
67108;SDS011;54027;50.786;7.058;2023-10-31T08:27:56;4.13;;;2.42;;
67108;SDS011;54027;50.786;7.058;2023-10-31T08:30:22;2.42;;;1.30;;
67108;SDS011;54027;50.786;7.058;2023-10-31T08:32:47;1.67;;;1.17;;
67108;SDS011;54027;50.786;7.058;2023-10-31T08:35:13;2.85;;;1.33;;
67108;SDS011;54027;50.786;7.058;2023-10-31T08:37:38;2.50;;;1.30;;
67108;SDS011;54027;50.786;7.058;2023-10-31T08:40:04;2.83;;;0.98;;
67108;SDS011;54027;50.786;7.058;2023-10-31T08:42:30;1.73;;;1.00;;
67108;SDS011;54027;50.786;7.058;2023-10-31T08:44:55;3.38;;;1.00;;
67108;SDS011;54027;50.786;7.058;2023-10-31T08:47:20;3.63;;;1.00;;
67108;SDS011;54027;50.786;7.058;2023-10-31T08:49:46;2.05;;;1.10;;
67108;SDS011;54027;50.786;7.058;2023-10-31T08:52:11;2.05;;;0.85;;
67108;SDS011;54027;50.786;7.058;2023-10-31T08:54:37;1.55;;;0.90;;
67108;SDS011;54027;50.786;7.058;2023-10-31T08:57:02;3.47;;;1.02;;
67108;SDS011;54027;50.786;7.058;2023-10-31T08:59:27;2.67;;;0.90;;
67108;SDS011;54027;50.786;7.058;2023-10-31T09:01:53;1.65;;;1.17;;
67108;SDS011;54027;50.786;7.058;2023-10-31T09:04:18;3.55;;;1.10;;
67108;SDS011;54027;50.786;7.058;2023-10-31T09:06:43;3.20;;;1.13;;
67108;SDS011;54027;50.786;7.058;2023-10-31T09:09:09;1.25;;;0.93;;
67108;SDS011;54027;50.786;7.058;2023-10-31T09:11:35;2.08;;;1.02;;
67108;SDS011;54027;50.786;7.058;2023-10-31T09:14:00;1.42;;;0.85;;
67108;SDS011;54027;50.786;7.058;2023-10-31T09:16:26;1.45;;;0.80;;
67108;SDS011;54027;50.786;7.058;2023-10-31T09:18:51;4.18;;;1.08;;
67108;SDS011;54027;50.786;7.058;2023-10-31T09:21:17;3.13;;;0.90;;
67108;SDS011;54027;50.786;7.058;2023-10-31T09:23:42;1.48;;;0.80;;
67108;SDS011;54027;50.786;7.058;2023-10-31T09:26:08;1.50;;;0.90;;
67108;SDS011;54027;50.786;7.058;2023-10-31T09:28:33;3.03;;;0.80;;
67108;SDS011;54027;50.786;7.058;2023-10-31T09:31:01;2.92;;;0.80;;
67108;SDS011;54027;50.786;7.058;2023-10-31T09:33:27;1.05;;;0.63;;
67108;SDS011;54027;50.786;7.058;2023-10-31T09:35:52;2.03;;;0.75;;
67108;SDS011;54027;50.786;7.058;2023-10-31T09:38:17;1.90;;;0.90;;
67108;SDS011;54027;50.786;7.058;2023-10-31T09:40:43;1.25;;;0.70;;
67108;SDS011;54027;50.786;7.058;2023-10-31T09:43:08;1.25;;;1.00;;
67108;SDS011;54027;50.786;7.058;2023-10-31T09:45:34;1.40;;;0.77;;
67108;SDS011;54027;50.786;7.058;2023-10-31T09:47:59;2.08;;;0.80;;
67108;SDS011;54027;50.786;7.058;2023-10-31T09:50:27;2.05;;;0.80;;
67108;SDS011;54027;50.786;7.058;2023-10-31T09:52:54;2.80;;;1.30;;
67108;SDS011;54027;50.786;7.058;2023-10-31T09:55:21;4.78;;;1.10;;
67108;SDS011;54027;50.786;7.058;2023-10-31T09:57:47;1.60;;;0.80;;
67108;SDS011;54027;50.786;7.058;2023-10-31T10:00:13;1.60;;;0.75;;
67108;SDS011;54027;50.786;7.058;2023-10-31T10:02:38;2.05;;;0.70;;
67108;SDS011;54027;50.786;7.058;2023-10-31T10:05:04;2.70;;;0.80;;
67108;SDS011;54027;50.786;7.058;2023-10-31T10:07:30;2.20;;;0.80;;
67108;SDS011;54027;50.786;7.058;2023-10-31T10:09:59;1.77;;;0.55;;
67108;SDS011;54027;50.786;7.058;2023-10-31T10:12:25;2.45;;;1.02;;
67108;SDS011;54027;50.786;7.058;2023-10-31T10:14:51;2.33;;;1.05;;
67108;SDS011;54027;50.786;7.058;2023-10-31T10:17:18;4.10;;;0.85;;
67108;SDS011;54027;50.786;7.058;2023-10-31T10:19:46;1.42;;;1.02;;
67108;SDS011;54027;50.786;7.058;2023-10-31T10:22:12;3.42;;;0.93;;
67108;SDS011;54027;50.786;7.058;2023-10-31T10:24:39;1.02;;;0.40;;
67108;SDS011;54027;50.786;7.058;2023-10-31T10:27:06;1.33;;;0.38;;
67108;SDS011;54027;50.786;7.058;2023-10-31T10:29:33;4.20;;;0.70;;
67108;SDS011;54027;50.786;7.058;2023-10-31T10:31:59;1.50;;;0.40;;
67108;SDS011;54027;50.786;7.058;2023-10-31T10:34:24;5.50;;;0.82;;
67108;SDS011;54027;50.786;7.058;2023-10-31T10:36:49;0.93;;;0.40;;
67108;SDS011;54027;50.786;7.058;2023-10-31T10:39:19;0.77;;;0.50;;
67108;SDS011;54027;50.786;7.058;2023-10-31T10:41:52;0.40;;;0.30;;
67108;SDS011;54027;50.786;7.058;2023-10-31T10:44:20;1.77;;;0.50;;
67108;SDS011;54027;50.786;7.058;2023-10-31T10:46:55;1.05;;;0.40;;
67108;SDS011;54027;50.786;7.058;2023-10-31T10:49:21;2.92;;;0.60;;
67108;SDS011;54027;50.786;7.058;2023-10-31T10:51:56;1.27;;;0.50;;
67108;SDS011;54027;50.786;7.058;2023-10-31T10:57:15;0.95;;;0.47;;
67108;SDS011;54027;50.786;7.058;2023-10-31T10:59:48;0.68;;;0.40;;
67108;SDS011;54027;50.786;7.058;2023-10-31T11:02:19;3.00;;;0.80;;
67108;SDS011;54027;50.786;7.058;2023-10-31T11:04:45;1.90;;;0.50;;
67108;SDS011;54027;50.786;7.058;2023-10-31T11:07:11;2.67;;;0.60;;
67108;SDS011;54027;50.786;7.058;2023-10-31T11:09:37;1.33;;;0.60;;
67108;SDS011;54027;50.786;7.058;2023-10-31T11:12:04;0.77;;;0.60;;
67108;SDS011;54027;50.786;7.058;2023-10-31T11:14:31;2.20;;;0.60;;
67108;SDS011;54027;50.786;7.058;2023-10-31T11:17:00;1.92;;;0.80;;
67108;SDS011;54027;50.786;7.058;2023-10-31T11:19:30;2.42;;;0.98;;
67108;SDS011;54027;50.786;7.058;2023-10-31T11:21:59;2.17;;;0.80;;
67108;SDS011;54027;50.786;7.058;2023-10-31T11:24:26;3.28;;;1.05;;
67108;SDS011;54027;50.786;7.058;2023-10-31T11:27:12;2.95;;;0.80;;
67108;SDS011;54027;50.786;7.058;2023-10-31T11:29:37;2.13;;;1.00;;
67108;SDS011;54027;50.786;7.058;2023-10-31T11:32:03;2.88;;;1.40;;
67108;SDS011;54027;50.786;7.058;2023-10-31T11:34:30;1.90;;;0.90;;
67108;SDS011;54027;50.786;7.058;2023-10-31T11:42:35;1.98;;;0.98;;
67108;SDS011;54027;50.786;7.058;2023-10-31T11:45:01;4.22;;;0.88;;
67108;SDS011;54027;50.786;7.058;2023-10-31T11:47:26;6.15;;;0.82;;
67108;SDS011;54027;50.786;7.058;2023-10-31T11:49:52;2.10;;;0.80;;
67108;SDS011;54027;50.786;7.058;2023-10-31T11:52:17;1.15;;;0.60;;
67108;SDS011;54027;50.786;7.058;2023-10-31T11:54:43;3.17;;;0.70;;
67108;SDS011;54027;50.786;7.058;2023-10-31T11:57:09;4.50;;;1.10;;
67108;SDS011;54027;50.786;7.058;2023-10-31T11:59:37;3.85;;;1.10;;
67108;SDS011;54027;50.786;7.058;2023-10-31T12:02:13;4.35;;;0.70;;
67108;SDS011;54027;50.786;7.058;2023-10-31T12:04:39;3.65;;;1.00;;
67108;SDS011;54027;50.786;7.058;2023-10-31T12:07:04;2.00;;;0.90;;
67108;SDS011;54027;50.786;7.058;2023-10-31T12:09:30;1.65;;;0.68;;
67108;SDS011;54027;50.786;7.058;2023-10-31T12:11:56;2.90;;;0.80;;
67108;SDS011;54027;50.786;7.058;2023-10-31T12:14:21;2.22;;;0.65;;
67108;SDS011;54027;50.786;7.058;2023-10-31T12:16:46;3.05;;;1.35;;
67108;SDS011;54027;50.786;7.058;2023-10-31T12:19:12;5.32;;;1.10;;
67108;SDS011;54027;50.786;7.058;2023-10-31T12:24:07;2.03;;;0.82;;
67108;SDS011;54027;50.786;7.058;2023-10-31T12:26:34;2.10;;;0.80;;
67108;SDS011;54027;50.786;7.058;2023-10-31T12:29:15;2.05;;;1.02;;
67108;SDS011;54027;50.786;7.058;2023-10-31T12:31:51;2.97;;;0.70;;
67108;SDS011;54027;50.786;7.058;2023-10-31T12:34:18;2.67;;;0.85;;
67108;SDS011;54027;50.786;7.058;2023-10-31T12:36:46;2.95;;;1.08;;
67108;SDS011;54027;50.786;7.058;2023-10-31T12:39:13;2.47;;;0.90;;
67108;SDS011;54027;50.786;7.058;2023-10-31T12:41:39;5.18;;;0.85;;
67108;SDS011;54027;50.786;7.058;2023-10-31T12:44:06;3.70;;;1.23;;
67108;SDS011;54027;50.786;7.058;2023-10-31T12:46:39;4.20;;;0.95;;
67108;SDS011;54027;50.786;7.058;2023-10-31T12:49:12;4.13;;;1.08;;
67108;SDS011;54027;50.786;7.058;2023-10-31T12:54:29;2.67;;;1.05;;
67108;SDS011;54027;50.786;7.058;2023-10-31T12:57:02;5.78;;;0.90;;
67108;SDS011;54027;50.786;7.058;2023-10-31T12:59:29;5.78;;;0.80;;
67108;SDS011;54027;50.786;7.058;2023-10-31T13:01:55;3.95;;;0.75;;
67108;SDS011;54027;50.786;7.058;2023-10-31T13:04:27;7.40;;;1.20;;
67108;SDS011;54027;50.786;7.058;2023-10-31T13:07:03;3.70;;;0.70;;
67108;SDS011;54027;50.786;7.058;2023-10-31T13:09:34;1.85;;;0.82;;
67108;SDS011;54027;50.786;7.058;2023-10-31T13:12:01;2.65;;;0.93;;
67108;SDS011;54027;50.786;7.058;2023-10-31T13:14:28;2.38;;;0.88;;
67108;SDS011;54027;50.786;7.058;2023-10-31T13:16:54;4.97;;;0.93;;
67108;SDS011;54027;50.786;7.058;2023-10-31T13:19:20;4.28;;;0.98;;
67108;SDS011;54027;50.786;7.058;2023-10-31T13:21:45;6.28;;;0.90;;
67108;SDS011;54027;50.786;7.058;2023-10-31T13:24:11;4.70;;;1.50;;
67108;SDS011;54027;50.786;7.058;2023-10-31T13:26:37;4.25;;;1.10;;
67108;SDS011;54027;50.786;7.058;2023-10-31T13:29:02;3.35;;;0.95;;
67108;SDS011;54027;50.786;7.058;2023-10-31T13:31:27;2.63;;;1.10;;
67108;SDS011;54027;50.786;7.058;2023-10-31T13:33:53;4.25;;;0.98;;
67108;SDS011;54027;50.786;7.058;2023-10-31T13:36:18;4.00;;;0.80;;
67108;SDS011;54027;50.786;7.058;2023-10-31T13:38:45;4.05;;;1.08;;
67108;SDS011;54027;50.786;7.058;2023-10-31T13:41:10;3.85;;;1.00;;
67108;SDS011;54027;50.786;7.058;2023-10-31T13:43:36;3.28;;;0.80;;
67108;SDS011;54027;50.786;7.058;2023-10-31T13:46:02;3.95;;;0.85;;
67108;SDS011;54027;50.786;7.058;2023-10-31T13:48:28;3.78;;;0.80;;
67108;SDS011;54027;50.786;7.058;2023-10-31T13:50:53;3.22;;;0.85;;
67108;SDS011;54027;50.786;7.058;2023-10-31T13:53:19;4.40;;;0.90;;
67108;SDS011;54027;50.786;7.058;2023-10-31T13:55:45;2.13;;;0.80;;
67108;SDS011;54027;50.786;7.058;2023-10-31T13:58:11;6.40;;;1.08;;
67108;SDS011;54027;50.786;7.058;2023-10-31T14:00:36;3.80;;;0.82;;
67108;SDS011;54027;50.786;7.058;2023-10-31T14:03:02;3.05;;;0.90;;
67108;SDS011;54027;50.786;7.058;2023-10-31T14:05:27;2.55;;;0.70;;
67108;SDS011;54027;50.786;7.058;2023-10-31T14:07:53;1.95;;;0.82;;
67108;SDS011;54027;50.786;7.058;2023-10-31T14:10:19;1.95;;;0.73;;
67108;SDS011;54027;50.786;7.058;2023-10-31T14:12:45;2.22;;;0.85;;
67108;SDS011;54027;50.786;7.058;2023-10-31T14:15:11;3.13;;;0.90;;
67108;SDS011;54027;50.786;7.058;2023-10-31T14:17:37;6.68;;;1.15;;
67108;SDS011;54027;50.786;7.058;2023-10-31T14:20:02;2.80;;;1.00;;
67108;SDS011;54027;50.786;7.058;2023-10-31T14:22:29;6.30;;;1.20;;
67108;SDS011;54027;50.786;7.058;2023-10-31T14:24:54;3.72;;;0.80;;
67108;SDS011;54027;50.786;7.058;2023-10-31T14:27:19;2.65;;;1.10;;
67108;SDS011;54027;50.786;7.058;2023-10-31T14:29:45;4.40;;;1.17;;
67108;SDS011;54027;50.786;7.058;2023-10-31T14:32:10;1.50;;;0.80;;
67108;SDS011;54027;50.786;7.058;2023-10-31T14:34:36;3.63;;;1.00;;
67108;SDS011;54027;50.786;7.058;2023-10-31T14:37:01;3.55;;;0.80;;
67108;SDS011;54027;50.786;7.058;2023-10-31T14:39:27;3.47;;;1.35;;
67108;SDS011;54027;50.786;7.058;2023-10-31T14:41:52;3.00;;;1.00;;
67108;SDS011;54027;50.786;7.058;2023-10-31T14:44:18;7.47;;;1.20;;
67108;SDS011;54027;50.786;7.058;2023-10-31T14:46:43;2.55;;;0.80;;
67108;SDS011;54027;50.786;7.058;2023-10-31T14:49:09;1.95;;;0.80;;
67108;SDS011;54027;50.786;7.058;2023-10-31T14:51:35;2.05;;;0.85;;
67108;SDS011;54027;50.786;7.058;2023-10-31T14:54:00;3.50;;;1.20;;